Time;durP1;ratioP1;P1;durP2;ratioP2;P2;SDS_P1;SDS_P2;PMS_P1;PMS_P2;Temp;Humidity;BMP_temperature;BMP_pressure;BME280_temperature;BME280_humidity;BME280_pressure;Samples;Min_cycle;Max_cycle;Signal;HPM_P1;HPM_P2
2022/09/01 00:01:38;;;;;;;41.55;19.95;;;;;16.60;96659.00;;;;8371442;28;20227;-80
2022/09/01 00:05:42;;;;;;;45.50;19.58;;;;;16.70;96665.00;;;;8372081;28;20222;-81
2022/09/01 00:10:19;;;;;;;42.83;20.27;;;;;16.70;96667.00;;;;8371431;28;20226;-80
2022/09/01 00:14:26;;;;;;;46.67;21.80;;;;;16.70;96668.00;;;;8371160;28;20690;-77
2022/09/01 00:18:33;;;;;;;51.90;21.38;;;;;16.70;96662.00;;;;8371048;28;20606;-79
2022/09/01 00:23:09;;;;;;;48.65;20.08;;;;;16.80;96657.00;;;;8370448;28;20220;-79
2022/09/01 00:27:12;;;;;;;39.55;18.90;;;;;16.90;96658.00;;;;8370799;28;20405;-82
2022/09/01 00:31:15;;;;;;;41.47;19.17;;;;;16.90;96656.00;;;;8371444;28;20672;-82
2022/09/01 00:35:19;;;;;;;36.42;18.33;;;;;16.90;96650.00;;;;8371264;28;20275;-82
2022/09/01 00:39:24;;;;;;;34.10;18.05;;;;;16.90;96655.00;;;;8369929;28;20307;-78
2022/09/01 00:43:38;;;;;;;35.58;17.27;;;;;16.90;96650.00;;;;8370934;28;20633;-82
2022/09/01 00:48:04;;;;;;;38.35;16.80;;;;;16.90;96647.00;;;;8361952;28;20232;-82
2022/09/01 00:52:13;;;;;;;41.70;18.48;;;;;16.90;96649.00;;;;8381324;28;20220;-80
2022/09/01 00:56:18;;;;;;;41.03;18.70;;;;;16.90;96645.00;;;;8370639;28;20221;-80
2022/09/01 01:00:52;;;;;;;39.33;19.58;;;;;16.90;96645.00;;;;8367748;28;20228;-80
2022/09/01 01:04:59;;;;;;;39.60;19.60;;;;;17.00;96641.00;;;;8363075;28;20218;-78
2022/09/01 01:09:02;;;;;;;45.53;19.55;;;;;17.00;96637.00;;;;8371556;28;20244;-79
2022/09/01 01:13:11;;;;;;;35.00;18.13;;;;;17.00;96634.00;;;;8366045;28;20260;-80
2022/09/01 01:17:14;;;;;;;36.60;17.23;;;;;17.00;96636.00;;;;8364959;28;20323;-79
2022/09/01 01:25:48;;;;;;;37.65;19.23;;;;;16.90;96631.00;;;;8363995;28;20646;-78
2022/09/01 01:29:53;;;;;;;42.80;19.98;;;;;16.90;96634.00;;;;8365185;28;20216;-78
2022/09/01 01:33:58;;;;;;;39.70;19.67;;;;;16.90;96628.00;;;;8363691;28;20231;-78
2022/09/01 01:38:05;;;;;;;39.05;18.98;;;;;16.90;96626.00;;;;8364688;28;20319;-79
2022/09/01 01:42:11;;;;;;;43.83;20.23;;;;;16.90;96617.00;;;;8364134;28;20681;-79
2022/09/01 01:46:47;;;;;;;43.10;20.55;;;;;16.80;96629.00;;;;8364117;28;20572;-79
2022/09/01 01:50:51;;;;;;;45.00;21.05;;;;;16.80;96622.00;;;;8364534;28;20294;-79
2022/09/01 01:54:54;;;;;;;43.03;20.77;;;;;16.80;96621.00;;;;8363701;28;20311;-79
2022/09/01 01:59:00;;;;;;;45.75;21.70;;;;;16.80;96616.00;;;;8363712;28;20319;-81
2022/09/01 02:03:37;;;;;;;40.92;20.15;;;;;16.90;96617.00;;;;8363486;28;20227;-81
2022/09/01 02:07:41;;;;;;;37.20;19.67;;;;;16.90;96615.00;;;;8363182;28;20547;-80
2022/09/01 02:11:45;;;;;;;44.70;20.63;;;;;16.90;96620.00;;;;8362565;28;20255;-79
2022/09/01 02:16:23;;;;;;;36.88;18.70;;;;;16.90;96605.00;;;;8363111;28;20217;-78
2022/09/01 02:20:28;;;;;;;34.53;18.50;;;;;17.00;96603.00;;;;8367769;28;20715;-79
2022/09/01 02:25:02;;;;;;;39.58;18.63;;;;;16.90;96603.00;;;;8362654;28;20303;-79
2022/09/01 02:29:08;;;;;;;43.53;20.50;;;;;16.90;96595.00;;;;8362175;28;20216;-81
2022/09/01 02:33:17;;;;;;;49.97;22.60;;;;;16.80;96592.00;;;;8362424;28;20224;-80
2022/09/01 02:37:50;;;;;;;48.20;21.92;;;;;16.80;96594.00;;;;8362604;28;20225;-80
2022/09/01 02:41:53;;;;;;;50.97;22.83;;;;;16.80;96589.00;;;;8362246;28;20216;-80
2022/09/01 02:46:28;;;;;;;48.38;21.83;;;;;16.70;96593.00;;;;8361334;28;20227;-81
2022/09/01 02:51:05;;;;;;;46.83;22.00;;;;;16.70;96585.00;;;;8361615;28;20224;-80
2022/09/01 02:55:08;;;;;;;49.70;21.73;;;;;16.60;96583.00;;;;8361244;28;20228;-80
2022/09/01 02:59:40;;;;;;;48.38;21.98;;;;;16.60;96579.00;;;;8362190;28;20584;-83
2022/09/01 03:04:17;;;;;;;51.30;23.50;;;;;16.60;96587.00;;;;8361626;28;20573;-74
2022/09/01 03:08:53;;;;;;;48.92;23.08;;;;;16.50;96579.00;;;;8361736;28;20274;-73
2022/09/01 03:13:32;;;;;;;52.10;23.25;;;;;16.50;96576.00;;;;8361145;28;20225;-74
2022/09/01 03:18:06;;;;;;;52.92;23.83;;;;;16.50;96578.00;;;;8357619;28;20288;-74
2022/09/01 03:22:40;;;;;;;53.55;24.90;;;;;16.50;96585.00;;;;8360808;28;20220;-73
2022/09/01 03:27:17;;;;;;;60.80;24.63;;;;;16.50;96580.00;;;;8360303;28;20622;-73
2022/09/01 03:31:55;;;;;;;54.65;25.40;;;;;16.60;96585.00;;;;8358746;28;20336;-74
2022/09/01 03:36:29;;;;;;;56.60;25.90;;;;;16.50;96578.00;;;;8358639;28;20658;-73
2022/09/01 03:40:36;;;;;;;56.92;25.77;;;;;16.50;96578.00;;;;8359947;28;20299;-74
2022/09/01 03:44:43;;;;;;;53.63;24.92;;;;;16.50;96583.00;;;;8360262;28;20221;-73
2022/09/01 03:49:23;;;;;;;50.45;23.65;;;;;16.60;96576.00;;;;8360612;28;20690;-71
2022/09/01 03:53:55;;;;;;;49.13;23.60;;;;;16.60;96574.00;;;;8360536;28;20224;-73
2022/09/01 04:03:20;;;;;;;41.05;21.17;;;;;16.70;96589.00;;;;8358939;28;20281;-75
2022/09/01 04:07:49;;;;;;;38.92;21.27;;;;;16.70;96592.00;;;;8359400;28;20665;-75
2022/09/01 04:12:26;;;;;;;46.72;21.23;;;;;16.80;96602.00;;;;8360363;28;20675;-73
2022/09/01 04:21:41;;;;;;;41.95;21.85;;;;;16.80;96600.00;;;;8359880;28;20236;-73
2022/09/01 04:26:19;;;;;;;41.33;22.20;;;;;16.80;96601.00;;;;8359937;28;20392;-74
2022/09/01 04:30:23;;;;;;;43.40;21.88;;;;;16.80;96601.00;;;;8359529;28;20236;-75
2022/09/01 04:34:59;;;;;;;38.65;21.23;;;;;16.80;96601.00;;;;8359906;28;20247;-76
2022/09/01 04:39:07;;;;;;;39.97;21.02;;;;;16.70;96595.00;;;;8365105;28;20217;-75
2022/09/01 04:43:38;;;;;;;39.22;21.92;;;;;16.70;96599.00;;;;8365830;28;20571;-74
2022/09/01 04:48:15;;;;;;;39.00;20.13;;;;;16.70;96600.00;;;;8354219;28;20220;-73
2022/09/01 04:52:55;;;;;;;46.88;21.52;;;;;16.70;96599.00;;;;8365993;28;20220;-74
2022/09/01 05:02:13;;;;;;;38.15;19.67;;;;;16.70;96601.00;;;;8366259;28;20254;-74
2022/09/01 05:06:52;;;;;;;42.20;19.98;;;;;16.60;96597.00;;;;8366119;28;20235;-74
2022/09/01 05:10:57;;;;;;;34.13;18.95;;;;;16.60;96602.00;;;;8365612;28;20208;-74
2022/09/01 05:15:05;;;;;;;38.90;20.13;;;;;16.60;96605.00;;;;8364990;28;20224;-74
2022/09/01 05:19:36;;;;;;;36.67;19.25;;;;;16.50;96605.00;;;;8365447;28;20292;-74
2022/09/01 05:23:40;;;;;;;32.58;18.63;;;;;16.40;96607.00;;;;8364483;28;20212;-74
2022/09/01 05:28:13;;;;;;;36.53;19.38;;;;;16.40;96608.00;;;;8364912;28;20324;-73
2022/09/01 05:32:19;;;;;;;40.65;20.60;;;;;16.40;96606.00;;;;8364392;28;20219;-74
2022/09/01 05:36:24;;;;;;;37.78;20.15;;;;;16.40;96601.00;;;;8364627;28;20226;-74
2022/09/01 05:40:27;;;;;;;41.95;21.33;;;;;16.40;96599.00;;;;8363987;28;20312;-73
2022/09/01 05:45:05;;;;;;;41.45;21.50;;;;;16.30;96599.00;;;;8364578;28;20227;-75
2022/09/01 05:49:13;;;;;;;44.42;22.73;;;;;16.30;96600.00;;;;8363776;28;20678;-74
2022/09/01 05:53:17;;;;;;;46.65;22.73;;;;;16.40;96599.00;;;;8365057;28;20523;-75
2022/09/01 05:57:23;;;;;;;45.30;22.52;;;;;16.50;96600.00;;;;8363530;28;20308;-74
2022/09/01 06:01:39;;;;;;;47.83;24.83;;;;;16.60;96594.00;;;;8364248;28;20695;-74
2022/09/01 06:05:47;;;;;;;40.22;23.00;;;;;16.60;96594.00;;;;8364303;28;20324;-74
2022/09/01 06:09:52;;;;;;;37.40;21.20;;;;;16.80;96599.00;;;;8364732;28;20672;-74
2022/09/01 06:13:57;;;;;;;40.55;22.00;;;;;16.90;96599.00;;;;8364157;28;20228;-75
2022/09/01 06:18:00;;;;;;;35.60;22.42;;;;;16.90;96610.00;;;;8363967;28;20226;-75
2022/09/01 06:22:06;;;;;;;37.20;21.50;;;;;16.90;96615.00;;;;8363800;28;20239;-75
2022/09/01 06:26:40;;;;;;;38.95;21.02;;;;;16.80;96617.00;;;;8363102;28;20224;-74
2022/09/01 06:30:44;;;;;;;37.08;21.40;;;;;17.00;96618.00;;;;8363298;28;20228;-75
2022/09/01 06:34:50;;;;;;;32.35;20.77;;;;;17.00;96621.00;;;;8362628;28;20225;-74
2022/09/01 06:38:55;;;;;;;33.13;21.50;;;;;17.10;96618.00;;;;8363283;28;20230;-75
2022/09/01 06:43:06;;;;;;;34.20;21.10;;;;;17.00;96633.00;;;;8362213;28;20224;-74
2022/09/01 06:47:09;;;;;;;32.08;20.17;;;;;17.10;96630.00;;;;8362528;28;20225;-74
2022/09/01 06:51:15;;;;;;;30.77;20.70;;;;;17.10;96627.00;;;;8362490;28;20216;-74
2022/09/01 06:55:52;;;;;;;26.00;18.55;;;;;17.20;96631.00;;;;8362251;28;20295;-74
2022/09/01 06:59:55;;;;;;;26.05;17.85;;;;;17.20;96645.00;;;;8361215;28;20624;-74
2022/09/01 07:04:30;;;;;;;24.33;16.92;;;;;17.20;96643.00;;;;8362216;28;20321;-74
2022/09/01 07:08:38;;;;;;;26.88;17.90;;;;;17.30;96647.00;;;;8361600;28;20279;-74
2022/09/01 07:13:03;;;;;;;27.05;17.50;;;;;17.30;96648.00;;;;8361966;28;20216;-73
2022/09/01 07:17:08;;;;;;;25.40;18.23;;;;;17.30;96648.00;;;;8362033;28;20247;-74
2022/09/01 07:21:30;;;;;;;29.27;19.00;;;;;17.40;96654.00;;;;8361804;28;20240;-73
2022/09/01 07:25:54;;;;;;;27.45;17.98;;;;;17.20;96654.00;;;;8361401;28;20565;-73
2022/09/01 07:30:34;;;;;;;26.88;17.85;;;;;17.00;96660.00;;;;8358579;28;20221;-73
2022/09/01 07:35:07;;;;;;;27.27;18.40;;;;;17.10;96650.00;;;;8360963;28;20228;-72
2022/09/01 07:39:43;;;;;;;28.50;17.42;;;;;17.10;96657.00;;;;8359829;28;20243;-72
2022/09/01 07:43:52;;;;;;;25.98;17.02;;;;;17.40;96667.00;;;;8361318;28;20589;-72
2022/09/01 07:48:28;;;;;;;25.08;14.68;;;;;17.70;96668.00;;;;8361369;28;20258;-73
2022/09/01 07:52:52;;;;;;;23.33;14.77;;;;;18.00;96676.00;;;;8360970;28;20719;-72
2022/09/01 07:56:55;;;;;;;19.15;14.40;;;;;18.10;96683.00;;;;8360828;28;20321;-72
2022/09/01 08:01:29;;;;;;;19.85;14.10;;;;;18.20;96682.00;;;;8361887;28;20684;-72
2022/09/01 08:05:34;;;;;;;18.88;13.52;;;;;18.50;96684.00;;;;8360643;28;20220;-72
2022/09/01 08:10:11;;;;;;;24.05;14.57;;;;;18.80;96679.00;;;;8363428;28;20224;-72
2022/09/01 08:14:14;;;;;;;15.95;12.57;;;;;18.90;96683.00;;;;8366881;28;20748;-72
2022/09/01 08:18:20;;;;;;;15.48;12.75;;;;;19.00;96679.00;;;;8367041;28;20716;-72
2022/09/01 08:22:58;;;;;;;15.45;13.05;;;;;19.10;96695.00;;;;8367029;28;20266;-72
2022/09/01 08:27:03;;;;;;;20.27;14.68;;;;;19.20;96692.00;;;;8367192;28;20260;-72
2022/09/01 08:31:07;;;;;;;17.02;13.70;;;;;19.50;96694.00;;;;8366782;28;20564;-72
2022/09/01 08:35:41;;;;;;;16.58;13.13;;;;;19.70;96692.00;;;;8366502;28;20221;-72
2022/09/01 08:39:47;;;;;;;13.57;11.98;;;;;19.80;96697.00;;;;8366730;28;20303;-71
2022/09/01 08:44:05;;;;;;;16.08;11.68;;;;;19.70;96701.00;;;;8366923;28;20216;-72
2022/09/01 08:48:33;;;;;;;13.80;11.55;;;;;19.80;96694.00;;;;8365403;28;20299;-72
2022/09/01 08:53:06;;;;;;;13.55;10.20;;;;;20.70;96704.00;;;;8366220;28;20228;-71
2022/09/01 08:57:16;;;;;;;15.65;10.68;;;;;21.40;96699.00;;;;8365644;28;20232;-71
2022/09/01 09:01:28;;;;;;;14.60;10.65;;;;;22.20;96703.00;;;;8365295;28;20583;-71
2022/09/01 09:05:43;;;;;;;14.38;8.93;;;;;22.20;96715.00;;;;8366396;28;20674;-71
2022/09/01 09:10:10;;;;;;;10.75;9.65;;;;;21.80;96711.00;;;;8364420;28;20224;-71
2022/09/01 09:14:50;;;;;;;12.15;10.00;;;;;22.10;96712.00;;;;8365743;28;20531;-71
2022/09/01 09:19:22;;;;;;;9.50;8.50;;;;;22.30;96707.00;;;;8365572;28;20238;-71
2022/09/01 09:23:30;;;;;;;9.25;7.78;;;;;22.60;96700.00;;;;8365522;28;20220;-71
2022/09/01 09:28:01;;;;;;;9.98;7.47;;;;;23.20;96710.00;;;;8364124;28;20251;-71
2022/09/01 09:32:19;;;;;;;10.73;7.70;;;;;23.30;96713.00;;;;8365077;28;20412;-71
2022/09/01 09:36:44;;;;;;;9.55;7.13;;;;;22.80;96705.00;;;;8364654;28;20282;-69
2022/09/01 09:41:00;;;;;;;8.55;6.97;;;;;22.70;96712.00;;;;8365328;28;20248;-70
2022/09/01 09:45:25;;;;;;;11.13;6.93;;;;;23.20;96713.00;;;;8364983;28;20303;-71
2022/09/01 09:49:34;;;;;;;9.57;5.88;;;;;24.10;96711.00;;;;8365250;28;20610;-71
2022/09/01 09:54:21;;;;;;;7.57;6.60;;;;;23.70;96706.00;;;;8364652;28;20224;-71
2022/09/01 09:58:27;;;;;;;7.47;6.18;;;;;24.80;96704.00;;;;8261696;28;20310;-70
2022/09/01 10:07:47;;;;;;;8.52;6.53;;;;;24.60;96700.00;;;;8363814;28;20231;-70
2022/09/01 10:12:25;;;;;;;5.43;4.93;;;;;25.30;96693.00;;;;8363845;28;20229;-71
2022/09/01 10:16:32;;;;;;;9.45;5.47;;;;;25.50;96696.00;;;;8363831;28;20303;-70
2022/09/01 10:21:08;;;;;;;5.35;4.85;;;;;24.90;96696.00;;;;8363545;28;20224;-70
2022/09/01 10:25:17;;;;;;;7.90;4.88;;;;;25.00;96685.00;;;;8362224;28;20602;-70
2022/09/01 10:29:50;;;;;;;5.45;4.75;;;;;25.30;96692.00;;;;8363621;28;20576;-72
2022/09/01 10:34:18;;;;;;;5.65;5.05;;;;;25.60;96703.00;;;;8361323;28;20220;-72
2022/09/01 10:38:24;;;;;;;5.15;4.30;;;;;25.50;96700.00;;;;8362232;28;20221;-71
2022/09/01 10:42:29;;;;;;;5.07;4.68;;;;;25.30;96699.00;;;;8361818;28;20216;-72
2022/09/01 10:47:03;;;;;;;7.93;4.47;;;;;25.10;96701.00;;;;8362378;28;20302;-72
2022/09/01 10:51:42;;;;;;;6.57;4.88;;;;;25.20;96701.00;;;;8361922;28;20303;-72
2022/09/01 10:56:17;;;;;;;5.40;4.90;;;;;25.30;96701.00;;;;8361802;28;20235;-72
2022/09/01 11:01:01;;;;;;;5.50;5.00;;;;;25.50;96700.00;;;;8361507;28;20251;-72
2022/09/01 11:05:24;;;;;;;4.85;4.43;;;;;25.80;96701.00;;;;8361421;28;20600;-72
2022/09/01 11:09:36;;;;;;;5.80;5.20;;;;;25.80;96702.00;;;;8361468;28;20213;-72
2022/09/01 11:13:43;;;;;;;7.40;4.63;;;;;25.90;96692.00;;;;8360586;28;20224;-72
2022/09/01 11:18:24;;;;;;;5.38;4.30;;;;;26.00;96699.00;;;;8361535;28;20247;-72
2022/09/01 11:22:32;;;;;;;4.40;3.70;;;;;26.00;96700.00;;;;8361232;28;20232;-71
2022/09/01 11:26:46;;;;;;;4.25;3.95;;;;;26.00;96688.00;;;;8361102;28;20733;-71
2022/09/01 11:30:54;;;;;;;4.07;3.75;;;;;26.10;96700.00;;;;8360322;28;20299;-71
2022/09/01 11:35:24;;;;;;;3.83;3.53;;;;;27.00;96686.00;;;;8360226;28;20281;-72
2022/09/01 11:39:42;;;;;;;3.67;3.35;;;;;27.80;96688.00;;;;8360214;28;20240;-68
2022/09/01 11:43:45;;;;;;;3.80;3.38;;;;;28.00;96688.00;;;;8360378;28;20241;-68
2022/09/01 11:47:52;;;;;;;3.20;3.00;;;;;27.60;96684.00;;;;8360360;28;20224;-72
2022/09/01 11:51:56;;;;;;;4.10;3.63;;;;;27.20;96684.00;;;;8360274;28;20547;-71
2022/09/01 11:56:16;;;;;;;3.50;3.30;;;;;26.90;96681.00;;;;8360163;28;20232;-72
2022/09/01 12:00:27;;;;;;;2.80;2.60;;;;;26.70;96681.00;;;;8360172;28;20292;-72
2022/09/01 12:04:56;;;;;;;2.92;2.72;;;;;26.60;96674.00;;;;8359686;28;20303;-71
2022/09/01 12:09:02;;;;;;;2.65;2.50;;;;;26.70;96676.00;;;;8360610;28;20307;-70
2022/09/01 12:13:35;;;;;;;9.85;2.13;;;;;27.10;96674.00;;;;8360271;28;20252;-69
2022/09/01 12:17:38;;;;;;;2.35;2.15;;;;;27.50;96676.00;;;;8360567;28;20679;-69
2022/09/01 12:21:43;;;;;;;3.85;2.40;;;;;27.90;96671.00;;;;8359896;28;20323;-70
2022/09/01 12:25:47;;;;;;;2.10;1.90;;;;;27.70;96678.00;;;;8360454;28;20307;-69
2022/09/01 12:30:23;;;;;;;2.15;2.05;;;;;27.50;96666.00;;;;8360079;28;20511;-69
2022/09/01 12:34:36;;;;;;;2.45;2.17;;;;;27.40;96668.00;;;;8359796;28;20301;-70
2022/09/01 12:38:39;;;;;;;2.97;1.95;;;;;27.60;96673.00;;;;8359382;28;20316;-69
2022/09/01 12:43:26;;;;;;;5.68;2.20;;;;;27.40;96676.00;;;;8360283;28;20227;-68
2022/09/01 12:47:49;;;;;;;2.40;2.28;;;;;27.50;96668.00;;;;8358686;28;20231;-69
2022/09/01 12:52:27;;;;;;;2.50;2.30;;;;;27.70;96669.00;;;;8358789;28;20280;-69
2022/09/01 12:57:16;;;;;;;4.68;2.53;;;;;27.50;96666.00;;;;8355532;28;20228;-68
2022/09/01 13:01:53;;;;;;;2.95;2.65;;;;;27.40;96666.00;;;;8331998;28;20303;-68
2022/09/01 13:05:59;;;;;;;3.00;2.80;;;;;27.20;96666.00;;;;8331457;28;20600;-68
2022/09/01 13:10:34;;;;;;;3.75;2.45;;;;;27.00;96665.00;;;;8331947;28;20300;-68
2022/09/01 13:14:37;;;;;;;4.53;2.50;;;;;26.80;96653.00;;;;8331464;28;20629;-68
2022/09/01 13:18:42;;;;;;;2.45;2.35;;;;;26.80;96650.00;;;;8331152;28;20235;-68
2022/09/01 13:23:22;;;;;;;6.90;2.90;;;;;26.70;96652.00;;;;8330397;28;20550;-68
2022/09/01 13:27:26;;;;;;;2.80;2.60;;;;;26.90;96652.00;;;;8330613;28;20227;-69
2022/09/01 13:31:30;;;;;;;2.90;2.53;;;;;27.10;96659.00;;;;8327405;28;20303;-69
2022/09/01 13:36:08;;;;;;;3.83;2.60;;;;;27.30;96653.00;;;;8330664;28;20283;-69
2022/09/01 13:40:32;;;;;;;2.58;2.47;;;;;27.20;96654.00;;;;8330588;28;20613;-70
2022/09/01 13:44:36;;;;;;;4.70;2.58;;;;;27.00;96650.00;;;;8329878;28;20221;-70
2022/09/01 13:48:39;;;;;;;4.35;2.40;;;;;26.70;96645.00;;;;8330000;28;20256;-70
2022/09/01 13:53:02;;;;;;;2.45;2.35;;;;;26.30;96644.00;;;;8328966;28;20605;-70
2022/09/01 13:57:42;;;;;;;3.80;3.50;;;;;25.80;96635.00;;;;8330871;28;20670;-70
2022/09/01 14:01:45;;;;;;;4.05;2.80;;;;;25.80;96647.00;;;;8364168;28;20229;-70
2022/09/01 14:06:20;;;;;;;2.92;2.42;;;;;25.60;96639.00;;;;8362738;28;20216;-70
2022/09/01 14:10:25;;;;;;;2.33;2.20;;;;;25.60;96642.00;;;;8362906;28;20300;-70
2022/09/01 14:14:30;;;;;;;4.00;2.60;;;;;25.50;96643.00;;;;8361695;28;20308;-70
2022/09/01 14:18:53;;;;;;;3.97;2.13;;;;;25.40;96633.00;;;;8360785;28;20228;-69
2022/09/01 14:23:30;;;;;;;3.20;2.10;;;;;25.30;96639.00;;;;8362079;28;20670;-70
2022/09/01 14:27:33;;;;;;;3.55;2.17;;;;;25.80;96635.00;;;;8362727;28;20622;-70
2022/09/01 14:32:12;;;;;;;2.45;2.25;;;;;26.70;96635.00;;;;8360193;28;20239;-70
2022/09/01 14:36:21;;;;;;;2.70;1.95;;;;;27.60;96631.00;;;;8363007;28;20862;-70
2022/09/01 14:40:54;;;;;;;4.72;2.00;;;;;28.30;96618.00;;;;8359243;28;20220;-70
2022/09/01 14:45:31;;;;;;;2.13;2.03;;;;;29.30;96622.00;;;;8351619;28;20714;-70
2022/09/01 14:50:21;;;;;;;5.22;2.08;;;;;30.00;96625.00;;;;8362399;28;20607;-69
2022/09/01 14:54:50;;;;;;;2.50;2.30;;;;;29.90;96616.00;;;;8355970;28;20596;-66
2022/09/01 14:59:27;;;;;;;3.85;2.33;;;;;29.10;96618.00;;;;8358165;28;20303;-66
2022/09/01 15:04:04;;;;;;;2.97;2.33;;;;;28.50;96612.00;;;;8360118;28;20311;-66
2022/09/01 15:08:42;;;;;;;2.40;2.30;;;;;27.90;96603.00;;;;8360925;28;20658;-65
2022/09/01 15:13:18;;;;;;;2.15;2.05;;;;;27.30;96611.00;;;;8359669;28;20216;-66
2022/09/01 15:17:52;;;;;;;2.75;2.55;;;;;26.40;96607.00;;;;8360341;28;20621;-65
2022/09/01 15:22:29;;;;;;;2.30;2.20;;;;;25.70;96609.00;;;;8358611;28;20664;-65
2022/09/01 15:27:06;;;;;;;2.67;2.47;;;;;25.10;96606.00;;;;8358412;28;20228;-65
2022/09/01 15:31:32;;;;;;;4.93;2.50;;;;;24.80;96597.00;;;;8358518;28;20339;-65
2022/09/01 15:36:03;;;;;;;2.45;2.25;;;;;24.50;96597.00;;;;8358960;28;20235;-66
2022/09/01 15:40:40;;;;;;;2.83;2.40;;;;;24.30;96602.00;;;;8360981;28;20718;-65
2022/09/01 15:45:16;;;;;;;3.05;2.35;;;;;24.30;96600.00;;;;8360203;28;20703;-67
2022/09/01 15:49:49;;;;;;;3.13;2.20;;;;;24.20;96602.00;;;;8360695;28;20255;-65
2022/09/01 15:54:28;;;;;;;5.00;2.90;;;;;24.10;96597.00;;;;8360474;28;20506;-66
2022/09/01 15:59:04;;;;;;;2.25;2.15;;;;;24.00;96603.00;;;;8353688;28;20608;-65
2022/09/01 16:08:41;;;;;;;3.50;2.40;;;;;23.90;96595.00;;;;8358462;28;20623;-65
2022/09/01 16:13:22;;;;;;;2.90;2.70;;;;;23.80;96597.00;;;;8357866;28;20251;-64
2022/09/01 16:17:55;;;;;;;3.53;2.25;;;;;23.90;96596.00;;;;8358261;28;20234;-64
2022/09/01 16:22:07;;;;;;;3.95;2.80;;;;;23.90;96593.00;;;;8363382;28;20645;-64
2022/09/01 16:26:36;;;;;;;2.65;2.45;;;;;24.00;96596.00;;;;8358319;28;20247;-69
2022/09/01 16:31:12;;;;;;;3.28;2.97;;;;;24.00;96596.00;;;;8356286;28;20306;-66
2022/09/01 16:35:56;;;;;;;4.03;2.30;;;;;23.90;96599.00;;;;8358176;28;20224;-66
2022/09/01 16:40:14;;;;;;;2.90;2.60;;;;;23.80;96592.00;;;;8363502;28;20823;-65
2022/09/01 16:44:46;;;;;;;2.35;2.20;;;;;23.70;96591.00;;;;8360883;28;20221;-65
2022/09/01 16:48:54;;;;;;;3.90;2.40;;;;;23.60;96590.00;;;;8365158;28;20307;-65
2022/09/01 16:53:16;;;;;;;4.32;2.58;;;;;23.40;96594.00;;;;8365647;28;20578;-65
2022/09/01 16:57:26;;;;;;;5.07;2.33;;;;;23.30;96589.00;;;;8364908;28;20236;-65
2022/09/01 17:01:59;;;;;;;2.50;2.40;;;;;23.00;96594.00;;;;8364373;28;20224;-65
2022/09/01 17:06:12;;;;;;;2.55;2.35;;;;;22.80;96593.00;;;;8364924;28;20256;-65
2022/09/01 17:10:41;;;;;;;3.38;2.42;;;;;22.50;96584.00;;;;8364420;28;20227;-66
2022/09/01 17:14:53;;;;;;;3.00;2.60;;;;;22.20;96584.00;;;;8365031;28;20622;-66
2022/09/01 17:18:59;;;;;;;5.15;2.95;;;;;21.90;96585.00;;;;8364698;28;20227;-66
2022/09/01 17:23:07;;;;;;;4.22;2.78;;;;;21.70;96594.00;;;;8365126;28;20311;-66
2022/09/01 17:27:46;;;;;;;5.93;3.15;;;;;21.30;96580.00;;;;8366617;28;20226;-66
2022/09/01 17:32:01;;;;;;;3.42;3.10;;;;;21.00;96593.00;;;;8364343;28;20650;-66
2022/09/01 17:36:17;;;;;;;4.78;3.38;;;;;20.70;96594.00;;;;8363422;28;20313;-66
2022/09/01 17:40:26;;;;;;;6.50;3.05;;;;;20.30;96601.00;;;;8364418;28;20335;-65
2022/09/01 17:45:02;;;;;;;3.25;2.95;;;;;20.00;96601.00;;;;8362886;28;20265;-66
2022/09/01 17:49:14;;;;;;;9.63;3.33;;;;;19.80;96609.00;;;;8363742;28;20216;-66
2022/09/01 17:53:48;;;;;;;7.28;3.45;;;;;19.50;96596.00;;;;8363339;28;20300;-66
2022/09/01 17:57:57;;;;;;;4.68;3.75;;;;;19.20;96601.00;;;;8363724;28;20239;-66
2022/09/01 18:02:20;;;;;;;3.95;3.25;;;;;18.90;96606.00;;;;8363526;28;20686;-66
2022/09/01 18:06:31;;;;;;;4.43;2.70;;;;;18.70;96611.00;;;;8363023;28;20349;-66
2022/09/01 18:11:01;;;;;;;3.28;2.97;;;;;18.60;96609.00;;;;8362998;28;20251;-66
2022/09/01 18:15:08;;;;;;;2.28;2.17;;;;;18.50;96604.00;;;;8356497;28;20647;-65
2022/09/01 18:19:44;;;;;;;2.20;2.10;;;;;18.40;96609.00;;;;8357240;28;20299;-65
2022/09/01 18:24:16;;;;;;;3.00;2.05;;;;;18.40;96620.00;;;;8362514;28;20224;-64
2022/09/01 18:28:53;;;;;;;2.28;2.08;;;;;18.30;96614.00;;;;8361600;28;20221;-64
2022/09/01 18:33:33;;;;;;;2.33;1.98;;;;;18.20;96621.00;;;;8360847;28;20239;-64
2022/09/01 18:38:19;;;;;;;2.55;2.05;;;;;18.20;96622.00;;;;8360894;28;20234;-64
2022/09/01 18:42:48;;;;;;;3.80;1.60;;;;;18.10;96631.00;;;;8356845;28;20299;-62
2022/09/01 18:47:25;;;;;;;1.98;1.88;;;;;18.00;96619.00;;;;8360911;28;20615;-66
2022/09/01 18:52:02;;;;;;;2.17;1.95;;;;;17.90;96619.00;;;;8360668;28;20299;-66
2022/09/01 18:56:41;;;;;;;2.08;1.90;;;;;17.90;96631.00;;;;8358130;28;20725;-67
2022/09/01 19:01:12;;;;;;;2.60;1.67;;;;;17.80;96637.00;;;;8356665;28;20221;-66
2022/09/01 19:10:39;;;;;;;1.92;1.83;;;;;17.60;96642.00;;;;8360828;28;20258;-65
2022/09/01 19:15:11;;;;;;;3.10;1.90;;;;;17.50;96634.00;;;;8358465;28;20239;-65
2022/09/01 19:19:42;;;;;;;2.15;1.73;;;;;17.30;96646.00;;;;8361251;28;20216;-66
2022/09/01 19:24:23;;;;;;;1.98;1.88;;;;;17.20;96650.00;;;;8359181;28;20227;-66
2022/09/01 19:28:57;;;;;;;2.60;1.85;;;;;17.10;96643.00;;;;8358864;28;20220;-66
2022/09/01 19:33:31;;;;;;;2.58;2.03;;;;;17.00;96645.00;;;;8350707;28;21148;-66
2022/09/01 19:38:08;;;;;;;2.10;1.90;;;;;16.90;96653.00;;;;8358143;28;20221;-66
2022/09/01 19:42:50;;;;;;;2.03;1.80;;;;;16.80;96644.00;;;;8359133;28;20216;-66
2022/09/01 19:47:26;;;;;;;1.95;1.83;;;;;16.70;96644.00;;;;8359996;28;20709;-67
2022/09/01 19:52:02;;;;;;;2.53;2.33;;;;;16.70;96639.00;;;;8358406;28;20228;-67
2022/09/01 19:56:37;;;;;;;4.50;1.73;;;;;16.60;96637.00;;;;8357830;28;20240;-66
2022/09/01 20:01:10;;;;;;;2.05;1.95;;;;;16.40;96644.00;;;;8358819;28;20240;-66
2022/09/01 20:10:55;;;;;;;2.08;1.95;;;;;16.10;96636.00;;;;8366194;28;20234;-69
2022/09/01 20:20:34;;;;;;;3.58;2.00;;;;;15.90;96631.00;;;;8366607;28;20666;-69
2022/09/01 20:24:39;;;;;;;2.10;1.92;;;;;15.90;96627.00;;;;8366748;28;20216;-70
2022/09/01 20:29:12;;;;;;;2.30;2.10;;;;;15.80;96629.00;;;;8365783;28;20649;-70
2022/09/01 20:33:43;;;;;;;2.20;2.10;;;;;15.70;96623.00;;;;8365965;28;20259;-70
2022/09/01 20:37:52;;;;;;;7.38;2.42;;;;;15.70;96634.00;;;;8366299;28;20676;-69
2022/09/01 20:42:00;;;;;;;2.00;1.90;;;;;15.70;96628.00;;;;8362711;28;20232;-70
2022/09/01 20:46:03;;;;;;;2.28;2.08;;;;;15.70;96631.00;;;;8366304;28;20224;-70
2022/09/01 20:50:11;;;;;;;3.70;2.00;;;;;15.60;96629.00;;;;8366269;28;20221;-70
2022/09/01 20:54:28;;;;;;;4.68;2.08;;;;;15.60;96633.00;;;;8365013;28;20212;-70
2022/09/01 20:58:42;;;;;;;2.63;2.17;;;;;15.60;96627.00;;;;8366137;28;20311;-70
2022/09/01 21:02:58;;;;;;;3.45;2.05;;;;;15.60;96628.00;;;;8364544;28;20231;-70
2022/09/01 21:07:36;;;;;;;4.13;1.85;;;;;15.50;96622.00;;;;8365108;28;20247;-70
2022/09/01 21:11:51;;;;;;;3.72;2.35;;;;;15.40;96630.00;;;;8364609;28;20615;-70
2022/09/01 21:16:22;;;;;;;3.38;2.30;;;;;15.30;96626.00;;;;8364376;28;20224;-70
2022/09/01 21:20:34;;;;;;;3.55;1.92;;;;;15.30;96624.00;;;;8364896;28;20558;-69
2022/09/01 21:24:40;;;;;;;3.80;2.10;;;;;15.20;96615.00;;;;8364547;28;20252;-69
2022/09/01 21:28:46;;;;;;;2.45;2.22;;;;;15.10;96616.00;;;;8363989;28;20311;-70
2022/09/01 21:32:52;;;;;;;4.53;2.33;;;;;15.10;96629.00;;;;8363625;28;20236;-69
2022/09/01 21:36:55;;;;;;;2.67;2.00;;;;;15.00;96630.00;;;;8364313;28;20234;-70
2022/09/01 21:41:00;;;;;;;2.63;2.10;;;;;15.00;96624.00;;;;8364384;28;20227;-69
2022/09/01 21:45:37;;;;;;;3.63;2.28;;;;;14.90;96622.00;;;;8364553;28;20236;-69
2022/09/01 21:49:40;;;;;;;2.60;2.40;;;;;14.90;96613.00;;;;8364296;28;20316;-69
2022/09/01 21:53:43;;;;;;;2.30;2.10;;;;;14.90;96612.00;;;;8363164;28;20307;-69
2022/09/01 21:57:47;;;;;;;3.00;2.50;;;;;14.90;96606.00;;;;8363196;28;20323;-70
2022/09/01 22:01:51;;;;;;;5.32;2.13;;;;;14.80;96607.00;;;;8364179;28;20234;-70
2022/09/01 22:06:26;;;;;;;2.88;2.33;;;;;14.70;96613.00;;;;8363419;28;20231;-70
2022/09/01 22:10:31;;;;;;;2.67;2.50;;;;;14.70;96603.00;;;;8363231;28;20220;-70
2022/09/01 22:15:06;;;;;;;3.83;2.50;;;;;14.60;96599.00;;;;8364030;28;20263;-70